Time;durP1;ratioP1;P1;durP2;ratioP2;P2;SDS_P1;SDS_P2;PMS_P1;PMS_P2;Temp;Humidity;BMP_temperature;BMP_pressure;BME280_temperature;BME280_humidity;BME280_pressure;Samples;Min_cycle;Max_cycle;Signal;HPM_P1;HPM_P2
2021/12/04 00:01:41;;;;;;;2.27;1.57;;;;;;;1.00;73.58;94529.03;4382913;32;20177;-61
2021/12/04 00:04:07;;;;;;;1.10;1.10;;;;;;;1.43;71.87;94534.97;4385485;32;20177;-61
2021/12/04 00:06:37;;;;;;;1.57;1.47;;;;;;;1.54;70.82;94517.50;4381699;32;20291;-62
2021/12/04 00:09:05;;;;;;;2.45;1.45;;;;;;;1.31;71.98;94513.47;4383120;32;20302;-62
2021/12/04 00:11:31;;;;;;;2.22;1.20;;;;;;;1.59;71.27;94501.84;4376269;32;20279;-62
2021/12/04 00:13:56;;;;;;;1.15;1.12;;;;;;;1.34;71.68;94494.69;4381721;32;20222;-62
2021/12/04 00:16:22;;;;;;;1.20;1.10;;;;;;;1.60;71.30;94485.13;4389067;32;20192;-61
2021/12/04 00:18:47;;;;;;;1.03;1.03;;;;;;;1.12;71.58;94468.75;4388222;32;20249;-61
2021/12/04 00:21:12;;;;;;;1.30;1.20;;;;;;;0.97;72.89;94466.06;4382277;32;20185;-62
2021/12/04 00:23:38;;;;;;;1.40;1.30;;;;;;;1.14;72.65;94469.28;4386139;32;20199;-61
2021/12/04 00:26:04;;;;;;;1.37;1.00;;;;;;;1.22;72.30;94466.19;4387634;32;20230;-61
2021/12/04 00:28:30;;;;;;;0.80;0.80;;;;;;;1.14;72.65;94476.34;4384159;32;20231;-61
2021/12/04 00:30:55;;;;;;;0.97;0.97;;;;;;;1.02;72.91;94458.28;4382367;32;20228;-62
2021/12/04 00:33:25;;;;;;;0.70;0.70;;;;;;;0.81;73.38;94454.78;4384074;32;20184;-62
2021/12/04 00:35:58;;;;;;;1.10;0.93;;;;;;;0.79;74.19;94449.03;4391432;32;20197;-62
2021/12/04 00:49:13;;;;;;;0.93;0.75;;;;;;;1.17;72.47;94421.78;4383898;32;20204;-62
2021/12/04 00:51:42;;;;;;;1.15;1.15;;;;;;;1.55;71.46;94414.53;4377447;32;20234;-62
2021/12/04 00:54:12;;;;;;;0.80;0.80;;;;;;;1.78;70.20;94414.03;4384253;32;20203;-61
2021/12/04 00:56:42;;;;;;;0.93;0.80;;;;;;;1.56;70.46;94397.81;4390533;32;20263;-61
2021/12/04 00:59:08;;;;;;;0.70;0.70;;;;;;;1.60;71.21;94396.25;4387880;32;20203;-59
2021/12/04 01:01:33;;;;;;;2.00;0.97;;;;;;;1.59;70.54;94399.91;4389183;32;20276;-60
2021/12/04 01:03:59;;;;;;;3.47;0.90;;;;;;;1.33;71.56;94397.25;4370735;32;20277;-59
2021/12/04 01:06:25;;;;;;;1.83;0.70;;;;;;;1.48;71.21;94403.53;4373488;32;20184;-61
2021/12/04 01:08:50;;;;;;;2.57;0.97;;;;;;;1.66;70.43;94393.38;4387646;32;20199;-62
2021/12/04 01:11:16;;;;;;;0.80;0.80;;;;;;;1.73;69.77;94406.19;4381562;32;20180;-62
2021/12/04 01:13:41;;;;;;;0.70;0.67;;;;;;;1.70;69.84;94399.66;4382749;32;20192;-61
2021/12/04 01:16:06;;;;;;;0.90;0.90;;;;;;;1.91;69.40;94392.59;4373928;32;20189;-61
2021/12/04 01:18:32;;;;;;;0.93;0.93;;;;;;;2.06;68.95;94415.38;4381276;32;20290;-62
2021/12/04 01:20:57;;;;;;;0.87;0.87;;;;;;;1.91;69.12;94397.03;4381599;32;20185;-61
2021/12/04 01:23:23;;;;;;;1.10;1.00;;;;;;;1.74;70.20;94407.75;4379697;32;20241;-61
2021/12/04 01:25:49;;;;;;;1.10;1.10;;;;;;;1.77;69.88;94414.31;4380685;32;20273;-62
2021/12/04 01:28:14;;;;;;;2.43;1.07;;;;;;;1.59;70.44;94418.22;4389024;32;20231;-62
2021/12/04 01:30:40;;;;;;;1.17;1.10;;;;;;;1.90;69.23;94425.03;4388615;32;20226;-62
2021/12/04 01:33:05;;;;;;;1.20;1.10;;;;;;;1.87;70.32;94419.56;4380723;32;20209;-62
2021/12/04 01:35:30;;;;;;;0.83;0.83;;;;;;;1.89;69.78;94415.59;4384462;32;20207;-61
2021/12/04 01:37:55;;;;;;;1.03;0.97;;;;;;;1.99;68.93;94402.53;4386450;32;20210;-62
2021/12/04 01:40:21;;;;;;;0.67;0.67;;;;;;;2.01;69.35;94394.44;4384850;32;20246;-61
2021/12/04 01:42:47;;;;;;;1.13;0.70;;;;;;;2.29;68.27;94387.84;4383699;32;20238;-61
2021/12/04 01:45:13;;;;;;;1.60;1.10;;;;;;;2.29;67.46;94406.16;4381118;32;20189;-62
2021/12/04 01:47:39;;;;;;;1.10;1.10;;;;;;;2.25;67.20;94405.16;4382005;32;20192;-61
2021/12/04 01:50:05;;;;;;;0.80;0.80;;;;;;;2.22;68.09;94398.59;4380597;32;20311;-62
2021/12/04 01:52:31;;;;;;;0.93;0.93;;;;;;;2.04;68.31;94386.84;4389052;32;20196;-62
2021/12/04 01:54:57;;;;;;;1.40;1.13;;;;;;;2.30;67.41;94379.75;4380398;32;20284;-62
2021/12/04 01:57:24;;;;;;;1.20;1.13;;;;;;;1.99;68.85;94357.31;4383057;32;20242;-62
2021/12/04 01:59:49;;;;;;;1.90;0.80;;;;;;;1.73;70.59;94348.69;4382660;32;20315;-61
2021/12/04 02:02:15;;;;;;;0.70;0.70;;;;;;;1.86;71.49;94347.38;4382287;32;20411;-62
2021/12/04 02:04:40;;;;;;;0.80;0.80;;;;;;;1.69;72.45;94332.72;4386435;32;20338;-61
2021/12/04 02:07:08;;;;;;;1.23;1.03;;;;;;;1.71;73.52;94319.41;4369159;32;20197;-62
2021/12/04 02:09:34;;;;;;;0.93;0.90;;;;;;;2.08;73.68;94314.66;4386580;32;20263;-62
2021/12/04 02:12:03;;;;;;;0.77;0.77;;;;;;;2.12;73.61;94303.66;4380843;32;20288;-61
2021/12/04 02:14:29;;;;;;;0.87;0.87;;;;;;;2.01;73.95;94306.31;4382014;32;20288;-62
2021/12/04 02:16:54;;;;;;;0.90;0.90;;;;;;;2.01;75.12;94306.31;4385236;32;20284;-61
2021/12/04 02:19:20;;;;;;;0.70;0.70;;;;;;;2.18;73.99;94285.06;4383382;32;20199;-62
2021/12/04 02:21:45;;;;;;;0.70;0.70;;;;;;;2.14;74.49;94283.25;4384954;32;20227;-62
2021/12/04 02:24:10;;;;;;;0.53;0.53;;;;;;;2.22;73.98;94283.50;4383326;32;20211;-62
2021/12/04 02:26:36;;;;;;;1.00;1.00;;;;;;;2.13;74.28;94279.06;4385129;32;20188;-60
2021/12/04 02:29:01;;;;;;;0.63;0.63;;;;;;;1.99;74.66;94278.84;4384800;32;20200;-60
2021/12/04 02:31:27;;;;;;;0.83;0.83;;;;;;;2.17;74.91;94287.97;4372389;32;20185;-61
2021/12/04 02:33:53;;;;;;;0.87;0.87;;;;;;;2.14;75.36;94281.41;4380182;32;20226;-61
2021/12/04 02:36:19;;;;;;;1.07;1.00;;;;;;;2.14;75.59;94302.34;4380401;32;20273;-60
2021/12/04 02:38:49;;;;;;;0.70;0.70;;;;;;;2.23;74.88;94294.75;4379950;32;20199;-61
2021/12/04 02:41:15;;;;;;;1.67;0.80;;;;;;;2.35;74.44;94296.00;4382592;32;20207;-61
2021/12/04 02:43:40;;;;;;;0.70;0.70;;;;;;;2.36;74.57;94294.97;4383679;32;20284;-61
2021/12/04 02:46:06;;;;;;;1.03;0.90;;;;;;;2.17;75.07;94285.34;4379791;32;20181;-60
2021/12/04 02:48:31;;;;;;;0.60;0.60;;;;;;;2.18;75.52;94282.47;4383382;32;20201;-61
2021/12/04 02:50:57;;;;;;;0.70;0.70;;;;;;;2.10;75.67;94284.81;4382132;32;20202;-61
2021/12/04 02:53:22;;;;;;;1.10;1.00;;;;;;;2.22;75.52;94287.94;4381760;32;20237;-61
2021/12/04 02:55:48;;;;;;;1.00;1.00;;;;;;;1.93;76.88;94280.69;4377718;32;20223;-61
2021/12/04 02:58:16;;;;;;;0.70;0.70;;;;;;;2.34;75.57;94272.72;4382725;32;20185;-60
2021/12/04 03:00:47;;;;;;;0.80;0.80;;;;;;;2.53;74.77;94272.91;4382364;32;20189;-61
2021/12/04 03:03:12;;;;;;;1.10;0.83;;;;;;;2.54;74.90;94284.94;4384066;32;20295;-60
2021/12/04 03:05:38;;;;;;;0.67;0.67;;;;;;;2.59;74.41;94277.06;4380325;32;20268;-60
2021/12/04 03:08:06;;;;;;;0.60;0.60;;;;;;;2.57;74.69;94266.88;4382829;32;20290;-60
2021/12/04 03:10:31;;;;;;;0.70;0.70;;;;;;;2.70;73.95;94268.87;4384890;32;20192;-60
2021/12/04 03:12:57;;;;;;;0.67;0.67;;;;;;;2.39;75.00;94252.56;4385875;32;20282;-61
2021/12/04 03:15:22;;;;;;;0.97;0.97;;;;;;;2.30;75.86;94263.84;4385124;32;20235;-61
2021/12/04 03:17:48;;;;;;;0.67;0.67;;;;;;;2.38;75.69;94251.00;4382049;32;20203;-61
2021/12/04 03:20:14;;;;;;;1.50;0.83;;;;;;;2.67;74.26;94258.97;4376181;32;20184;-63
2021/12/04 03:22:40;;;;;;;0.67;0.67;;;;;;;2.47;74.49;94250.44;4383774;32;20329;-60
2021/12/04 03:25:06;;;;;;;0.60;0.60;;;;;;;2.53;74.71;94252.75;4386579;32;20207;-61
2021/12/04 03:27:33;;;;;;;0.90;0.90;;;;;;;2.67;73.74;94258.97;4384477;32;20307;-61
2021/12/04 03:30:03;;;;;;;0.87;0.60;;;;;;;2.70;73.92;94253.19;4380268;32;20283;-60
2021/12/04 03:35:19;;;;;;;1.20;0.60;;;;;;;2.45;74.71;94250.72;4387419;32;20314;-60
2021/12/04 03:40:38;;;;;;;0.67;0.67;;;;;;;2.74;73.70;94238.50;4383675;32;20318;-60
2021/12/04 03:43:09;;;;;;;1.03;0.80;;;;;;;2.67;73.99;94239.87;4379615;32;20363;-60
2021/12/04 03:45:38;;;;;;;1.30;0.47;;;;;;;2.82;73.71;94233.75;4380771;32;20390;-60
2021/12/04 03:48:10;;;;;;;0.70;0.70;;;;;;;2.58;74.33;94231.78;4384373;32;20298;-60
2021/12/04 03:50:36;;;;;;;0.90;0.90;;;;;;;2.61;74.49;94217.38;4369871;32;20303;-60
2021/12/04 03:53:01;;;;;;;0.83;0.60;;;;;;;2.74;73.12;94214.16;4385302;32;20351;-60
2021/12/04 03:55:27;;;;;;;0.70;0.60;;;;;;;2.83;73.62;94209.91;4380955;32;20244;-60
2021/12/04 03:57:52;;;;;;;0.47;0.47;;;;;;;2.80;74.73;94192.13;4383559;32;20185;-61
2021/12/04 04:00:23;;;;;;;0.50;0.50;;;;;;;2.64;76.67;94191.47;4380122;32;20253;-61
2021/12/04 04:02:48;;;;;;;0.90;0.90;;;;;;;2.18;79.22;94182.28;4387796;32;20222;-61
2021/12/04 04:05:14;;;;;;;0.70;0.70;;;;;;;2.10;80.61;94172.38;4382344;32;20289;-60
2021/12/04 04:07:39;;;;;;;0.77;0.77;;;;;;;2.04;81.40;94167.19;4388856;32;20258;-61
2021/12/04 04:10:06;;;;;;;0.43;0.43;;;;;;;2.14;81.15;94149.84;4389452;32;20188;-60
2021/12/04 04:12:32;;;;;;;0.60;0.60;;;;;;;1.93;82.47;94155.19;4380002;32;20200;-60
2021/12/04 04:14:57;;;;;;;0.90;0.90;;;;;;;2.05;82.81;94152.28;4380930;32;20289;-60
2021/12/04 04:17:23;;;;;;;0.70;0.70;;;;;;;1.93;83.40;94151.78;4385885;32;20196;-60
2021/12/04 04:19:48;;;;;;;1.77;0.80;;;;;;;1.73;85.08;94139.56;4383431;32;20237;-60
2021/12/04 04:22:14;;;;;;;2.80;0.53;;;;;;;1.59;85.89;94143.81;4386372;32;20191;-60
2021/12/04 04:24:39;;;;;;;0.50;0.50;;;;;;;1.97;85.30;94150.22;4388963;32;20248;-61
2021/12/04 04:27:05;;;;;;;0.70;0.70;;;;;;;2.08;84.58;94142.03;4379925;32;20311;-60
2021/12/04 04:29:30;;;;;;;0.70;0.70;;;;;;;2.31;84.04;94145.06;4387141;32;20187;-61
2021/12/04 04:31:55;;;;;;;0.93;0.87;;;;;;;2.25;84.52;94140.94;4376248;32;20296;-60
2021/12/04 04:34:33;;;;;;;0.90;0.70;;;;;;;2.32;83.91;94142.16;4388340;32;20189;-61
2021/12/04 05:14:35;;;;;;;0.60;0.60;;;;;;;2.30;89.53;94093.78;4384668;32;20272;-60
2021/12/04 05:17:09;;;;;;;0.50;0.50;;;;;;;2.44;89.58;94096.59;4386666;32;20191;-60
2021/12/04 05:19:52;;;;;;;1.10;0.83;;;;;;;2.28;89.93;94090.69;4388285;32;20415;-60
2021/12/04 05:22:17;;;;;;;0.63;0.63;;;;;;;2.34;90.38;94086.97;4385071;32;20316;-60
2021/12/04 05:24:43;;;;;;;1.03;0.70;;;;;;;2.45;90.17;94093.69;4384670;32;20280;-60
2021/12/04 05:27:09;;;;;;;0.70;0.70;;;;;;;2.33;91.08;94091.41;4384933;32;20248;-60
2021/12/04 05:29:35;;;;;;;0.60;0.60;;;;;;;2.41;91.02;94084.81;4386186;32;20236;-60
2021/12/04 05:32:01;;;;;;;1.23;0.63;;;;;;;2.45;91.27;94064.91;4378572;32;20304;-60
2021/12/04 05:34:27;;;;;;;0.40;0.40;;;;;;;2.55;91.35;94062.19;4380086;32;20337;-60
2021/12/04 05:36:52;;;;;;;0.47;0.47;;;;;;;2.63;91.27;94055.59;4376410;32;20284;-60
2021/12/04 05:39:17;;;;;;;1.00;0.90;;;;;;;2.39;91.68;94058.16;4384983;32;20197;-60
2021/12/04 05:41:43;;;;;;;0.63;0.63;;;;;;;2.52;91.92;94052.28;4386208;32;20196;-60
2021/12/04 05:44:10;;;;;;;0.57;0.57;;;;;;;2.50;92.21;94054.38;4382609;32;20184;-59
2021/12/04 05:46:54;;;;;;;0.60;0.60;;;;;;;2.75;91.68;94054.19;4388165;32;20384;-60
2021/12/04 05:49:25;;;;;;;0.70;0.70;;;;;;;2.78;91.64;94054.69;4385251;32;20318;-60
2021/12/04 05:56:44;;;;;;;0.97;0.70;;;;;;;2.81;91.76;94043.66;4390022;32;20180;-61
2021/12/04 05:59:10;;;;;;;1.33;0.70;;;;;;;2.60;92.45;94038.63;4383686;32;20276;-61
2021/12/04 06:01:35;;;;;;;1.00;0.90;;;;;;;2.38;93.81;94033.03;4387315;32;20232;-61
2021/12/04 06:04:01;;;;;;;1.37;1.10;;;;;;;2.34;93.94;94035.41;4380649;32;20249;-62
2021/12/04 06:06:26;;;;;;;2.20;0.93;;;;;;;2.13;95.00;94031.38;4379061;32;20228;-61
2021/12/04 06:08:52;;;;;;;1.60;0.87;;;;;;;2.46;94.77;94029.06;4387612;32;20184;-62
2021/12/04 06:11:18;;;;;;;0.83;0.70;;;;;;;2.65;93.76;94027.31;4386698;32;20237;-62
2021/12/04 06:13:43;;;;;;;0.80;0.80;;;;;;;2.73;93.24;94017.00;4386947;32;20260;-61
2021/12/04 06:16:09;;;;;;;2.00;1.10;;;;;;;2.65;93.65;94015.00;4386268;32;20230;-62
2021/12/04 06:18:34;;;;;;;2.93;0.90;;;;;;;2.56;94.59;94016.66;4385352;32;20222;-61
2021/12/04 06:23:58;;;;;;;0.70;0.70;;;;;;;2.95;93.16;94007.91;4353732;32;20212;-62
2021/12/04 06:26:23;;;;;;;0.90;0.90;;;;;;;3.11;92.07;94009.31;4379139;32;20287;-62
2021/12/04 06:28:49;;;;;;;0.83;0.80;;;;;;;3.03;92.38;94004.69;4382720;32;20185;-62
2021/12/04 06:31:14;;;;;;;1.07;0.60;;;;;;;2.78;93.44;93999.69;4383957;32;20177;-62
2021/12/04 06:33:40;;;;;;;0.80;0.70;;;;;;;2.72;93.84;93999.75;4379542;32;20185;-62
2021/12/04 06:36:07;;;;;;;1.00;0.90;;;;;;;2.60;94.84;94003.81;4384052;32;20192;-62
2021/12/04 06:38:33;;;;;;;0.63;0.63;;;;;;;2.76;94.68;94008.63;4386054;32;20196;-62
2021/12/04 06:40:59;;;;;;;2.80;0.73;;;;;;;2.86;94.64;93997.28;4379061;32;20291;-62
2021/12/04 06:43:25;;;;;;;0.70;0.70;;;;;;;3.04;94.05;94001.78;4385709;32;20280;-62
2021/12/04 06:45:59;;;;;;;1.50;0.93;;;;;;;3.04;93.95;93999.19;4382237;32;20203;-62
2021/12/04 06:48:32;;;;;;;0.87;0.87;;;;;;;3.13;93.17;93991.47;4390053;32;20288;-62
2021/12/04 06:51:21;;;;;;;0.90;0.90;;;;;;;3.02;93.93;94003.13;4384100;32;20328;-62
2021/12/04 06:54:11;;;;;;;1.07;0.60;;;;;;;3.31;92.95;93997.84;4372950;32;20272;-62
2021/12/04 06:56:36;;;;;;;0.70;0.70;;;;;;;3.20;92.71;94002.41;4385181;32;20269;-62
2021/12/04 06:59:07;;;;;;;0.87;0.80;;;;;;;3.41;92.68;93998.47;4382061;32;20276;-62
2021/12/04 07:01:33;;;;;;;0.63;0.63;;;;;;;3.32;92.42;93997.56;4386819;32;20314;-62
2021/12/04 07:03:59;;;;;;;0.80;0.80;;;;;;;3.47;92.39;93987.94;4388972;32;20291;-62
2021/12/04 07:06:24;;;;;;;1.23;1.20;;;;;;;3.38;92.33;93991.16;4377101;32;20348;-62
2021/12/04 07:08:49;;;;;;;1.23;0.93;;;;;;;3.50;92.48;93997.88;4382417;32;20184;-62
2021/12/04 07:11:15;;;;;;;0.80;0.80;;;;;;;3.67;91.80;93985.06;4389347;32;20257;-62
2021/12/04 07:13:40;;;;;;;0.87;0.70;;;;;;;3.48;92.27;93994.75;4374261;32;20185;-62
2021/12/04 07:16:08;;;;;;;1.73;0.80;;;;;;;3.67;92.00;93987.69;4382877;32;20233;-62
2021/12/04 07:18:35;;;;;;;0.60;0.60;;;;;;;3.37;92.90;93984.38;4388103;32;20195;-62
2021/12/04 07:21:01;;;;;;;0.60;0.60;;;;;;;3.47;92.86;93993.19;4386887;32;20284;-60
2021/12/04 07:23:26;;;;;;;1.20;1.10;;;;;;;3.37;93.64;93986.22;4380778;32;20271;-60
2021/12/04 07:25:52;;;;;;;0.80;0.80;;;;;;;3.53;93.40;93981.59;4381957;32;20192;-60
2021/12/04 07:28:17;;;;;;;2.07;0.90;;;;;;;3.64;92.78;93977.75;4379785;32;20189;-61
2021/12/04 07:30:43;;;;;;;1.47;0.80;;;;;;;3.50;93.12;93971.66;4381130;32;20205;-60
2021/12/04 07:33:08;;;;;;;1.00;1.00;;;;;;;3.22;94.33;93975.91;4383979;32;20185;-60
2021/12/04 07:35:34;;;;;;;1.60;1.00;;;;;;;3.41;94.53;93972.28;4380785;32;20247;-60
2021/12/04 07:38:00;;;;;;;1.03;0.90;;;;;;;3.64;93.43;93956.78;4377935;32;20298;-60
2021/12/04 07:40:26;;;;;;;1.00;1.00;;;;;;;3.42;93.69;93946.84;4372959;32;20249;-60
2021/12/04 07:42:51;;;;;;;1.10;1.03;;;;;;;3.25;94.33;93947.31;4385926;32;20275;-60
2021/12/04 07:45:16;;;;;;;1.10;1.00;;;;;;;3.35;94.63;93933.28;4376801;32;20322;-60
2021/12/04 07:47:42;;;;;;;0.80;0.77;;;;;;;3.55;94.03;93934.87;4380710;32;20181;-60
2021/12/04 07:50:09;;;;;;;1.73;0.87;;;;;;;3.38;94.23;93941.37;4378686;32;20203;-60
2021/12/04 07:52:37;;;;;;;1.20;1.10;;;;;;;3.52;93.93;93941.47;4380484;32;20184;-60
2021/12/04 07:55:03;;;;;;;1.37;0.90;;;;;;;3.71;92.96;93942.25;4385710;32;20288;-60
2021/12/04 07:57:29;;;;;;;1.90;1.07;;;;;;;3.73;92.84;93939.34;4382415;32;20288;-60
2021/12/04 07:59:54;;;;;;;2.40;0.80;;;;;;;3.70;92.34;93942.53;4384673;32;20268;-60
2021/12/04 08:02:20;;;;;;;1.47;1.10;;;;;;;3.65;92.88;93942.59;4387125;32;20177;-60
2021/12/04 08:04:45;;;;;;;1.30;1.03;;;;;;;3.72;92.95;93943.03;4378297;32;20188;-64
2021/12/04 08:07:11;;;;;;;1.63;1.10;;;;;;;3.68;93.53;93942.81;4385200;32;20199;-60
2021/12/04 08:09:36;;;;;;;3.10;1.03;;;;;;;3.68;93.31;93945.44;4384402;32;20203;-60
2021/12/04 08:12:02;;;;;;;0.70;0.70;;;;;;;3.68;93.05;93948.06;4373970;32;20181;-60
2021/12/04 08:14:27;;;;;;;1.10;0.97;;;;;;;3.73;93.23;93947.22;4387739;32;20232;-60
2021/12/04 08:16:52;;;;;;;1.50;1.07;;;;;;;3.78;93.00;93947.91;4371826;32;20196;-60
2021/12/04 08:19:19;;;;;;;2.40;1.20;;;;;;;3.57;93.99;93951.09;4374154;32;20273;-60
2021/12/04 08:21:45;;;;;;;2.13;1.23;;;;;;;3.73;93.88;93949.84;4383577;32;20192;-60
2021/12/04 08:24:10;;;;;;;1.80;1.10;;;;;;;3.80;93.44;93940.53;4386677;32;20318;-60
2021/12/04 08:26:38;;;;;;;1.30;1.20;;;;;;;3.65;93.94;93939.97;4381313;32;20318;-60
2021/12/04 08:29:05;;;;;;;1.30;1.20;;;;;;;3.72;94.26;93941.19;4377446;32;20197;-60
2021/12/04 08:31:30;;;;;;;1.10;0.97;;;;;;;3.53;94.99;93939.63;4373569;32;20281;-60
2021/12/04 08:33:55;;;;;;;5.17;1.47;;;;;;;3.71;94.89;93941.47;4381223;32;20295;-60
2021/12/04 08:36:21;;;;;;;1.80;0.90;;;;;;;3.61;95.23;93936.38;4380907;32;20247;-60
2021/12/04 08:38:47;;;;;;;2.63;1.20;;;;;;;3.83;95.05;93933.94;4383770;32;20235;-60
2021/12/04 08:41:14;;;;;;;3.17;1.10;;;;;;;3.97;94.39;93928.75;4384520;32;20185;-60
2021/12/04 08:43:40;;;;;;;1.37;1.27;;;;;;;3.83;94.47;93920.84;4380912;32;20296;-60
2021/12/04 08:46:05;;;;;;;1.43;1.33;;;;;;;3.90;94.89;93923.88;4384179;32;20366;-60
2021/12/04 08:48:31;;;;;;;2.33;1.20;;;;;;;3.87;94.80;93927.06;4389899;32;20193;-60
2021/12/04 08:50:58;;;;;;;1.97;1.50;;;;;;;3.86;94.61;93928.13;4387542;32;20277;-60
2021/12/04 08:53:25;;;;;;;1.80;1.70;;;;;;;3.87;95.26;93921.81;4387372;32;20390;-60
2021/12/04 08:55:50;;;;;;;2.10;1.60;;;;;;;3.96;94.77;93922.72;4390089;32;20288;-60
2021/12/04 08:58:16;;;;;;;1.33;1.23;;;;;;;3.94;94.98;93919.63;4388714;32;20371;-60
2021/12/04 09:00:56;;;;;;;2.97;1.37;;;;;;;4.03;94.59;93911.87;4385461;32;20192;-60
2021/12/04 09:03:27;;;;;;;2.87;1.10;;;;;;;3.96;94.59;93914.06;4382734;32;20188;-60
2021/12/04 09:05:53;;;;;;;1.37;1.17;;;;;;;4.14;94.05;93911.44;4384203;32;20276;-60
2021/12/04 09:08:22;;;;;;;1.30;1.20;;;;;;;4.14;93.99;93911.44;4388721;32;20284;-61
2021/12/04 09:10:49;;;;;;;2.30;1.50;;;;;;;4.26;94.03;93913.59;4384507;32;20391;-60
2021/12/04 09:13:17;;;;;;;5.00;1.77;;;;;;;4.32;93.71;93911.66;4381610;32;20281;-60
2021/12/04 09:15:43;;;;;;;1.10;1.10;;;;;;;4.32;93.81;93911.66;4383295;32;20322;-60
2021/12/04 09:18:09;;;;;;;2.07;1.10;;;;;;;4.36;93.66;93910.81;4382237;32;20294;-60
2021/12/04 09:20:35;;;;;;;2.83;1.63;;;;;;;4.39;94.09;93904.94;4381708;32;20288;-60
2021/12/04 09:23:04;;;;;;;2.13;1.30;;;;;;;4.30;94.50;93906.69;4382023;32;20188;-60
2021/12/04 09:25:31;;;;;;;2.27;0.93;;;;;;;4.35;94.42;93909.25;4382527;32;20200;-60
2021/12/04 09:28:19;;;;;;;3.13;1.10;;;;;;;4.51;93.48;93901.88;4382520;32;20295;-60
2021/12/04 09:33:58;;;;;;;9.23;1.43;;;;;;;4.71;92.76;93898.88;4376575;32;20337;-60
2021/12/04 10:01:21;;;;;;;3.33;1.23;;;;;;;5.23;93.36;93870.50;4376690;32;20355;-60
2021/12/04 10:12:29;;;;;;;0.97;0.97;;;;;;;5.35;94.26;93857.63;4380181;32;20393;-60
2021/12/04 10:15:29;;;;;;;1.13;1.00;;;;;;;5.56;93.80;93857.19;4379016;32;20328;-59
2021/12/04 10:20:52;;;;;;;1.23;1.10;;;;;;;5.62;93.58;93848.09;4382296;32;20288;-60
2021/12/04 10:33:47;;;;;;;1.07;0.90;;;;;;;5.81;94.08;93830.28;4382983;32;20307;-60
2021/12/04 10:36:24;;;;;;;0.90;0.90;;;;;;;5.90;93.66;93825.88;4382885;32;20311;-60
2021/12/04 10:38:50;;;;;;;1.33;0.90;;;;;;;5.90;93.94;93823.25;4380507;32;20284;-60
2021/12/04 10:41:16;;;;;;;0.90;0.90;;;;;;;5.84;94.48;93819.16;4379749;32;20292;-60
2021/12/04 10:43:42;;;;;;;1.80;1.03;;;;;;;5.98;94.56;93804.13;4382340;32;20352;-60
2021/12/04 10:46:16;;;;;;;0.90;0.90;;;;;;;5.98;94.39;93809.38;4387360;32;20320;-60
2021/12/04 10:49:02;;;;;;;0.83;0.67;;;;;;;6.10;94.11;93799.06;4383799;32;20185;-60
2021/12/04 10:51:45;;;;;;;0.93;0.90;;;;;;;6.04;95.03;93800.25;4388721;32;20279;-60
2021/12/04 10:54:27;;;;;;;1.00;1.00;;;;;;;6.12;94.94;93804.03;4387713;32;20294;-60
2021/12/04 10:57:17;;;;;;;1.53;0.90;;;;;;;6.16;94.82;93795.22;4381541;32;20288;-60
2021/12/04 10:59:51;;;;;;;1.50;1.40;;;;;;;6.22;94.49;93789.81;4380115;32;20288;-60
2021/12/04 11:02:24;;;;;;;1.57;1.40;;;;;;;6.18;95.19;93779.13;4383238;32;20280;-60
2021/12/04 11:04:53;;;;;;;1.10;1.07;;;;;;;6.15;96.07;93777.88;4380261;32;20276;-60
2021/12/04 11:19:04;;;;;;;1.27;1.17;;;;;;;6.38;96.02;93748.84;4329506;32;20300;-60
2021/12/04 11:42:53;;;;;;;1.63;1.40;;;;;;;6.82;95.63;93724.91;4382367;32;20345;-60
2021/12/04 11:45:26;;;;;;;2.60;1.43;;;;;;;6.86;95.17;93720.56;4379613;32;20446;-60
2021/12/04 11:47:57;;;;;;;1.70;1.30;;;;;;;6.98;94.96;93717.31;4384538;32;20280;-60
2021/12/04 11:50:28;;;;;;;1.30;1.20;;;;;;;6.94;95.07;93724.28;4383890;32;20313;-61
2021/12/04 11:53:01;;;;;;;1.60;1.47;;;;;;;6.93;95.81;93714.06;4382258;32;20287;-60
2021/12/04 11:55:28;;;;;;;2.87;1.67;;;;;;;6.98;95.92;93717.31;4384693;32;20354;-60
2021/12/04 11:57:55;;;;;;;3.93;2.97;;;;;;;6.89;96.82;93717.31;4385722;32;20280;-60
2021/12/04 12:00:26;;;;;;;3.60;3.07;;;;;;;7.05;96.59;93719.50;4375628;32;20265;-60
2021/12/04 12:03:20;;;;;;;4.40;3.30;;;;;;;6.81;97.30;93723.34;4376576;32;20303;-60
2021/12/04 12:05:47;;;;;;;2.67;1.63;;;;;;;7.02;96.99;93712.22;4388054;32;20370;-60
2021/12/04 12:08:43;;;;;;;0.83;0.83;;;;;;;7.12;96.73;93712.66;4384565;32;20293;-60
2021/12/04 12:11:25;;;;;;;1.03;1.00;;;;;;;7.04;96.69;93710.03;4369968;32;20288;-60
2021/12/04 12:13:57;;;;;;;1.83;0.80;;;;;;;7.05;97.29;93706.31;4376401;32;20299;-60
2021/12/04 12:16:27;;;;;;;0.60;0.60;;;;;;;7.02;97.69;93707.72;4386070;32;20309;-60
2021/12/04 12:18:57;;;;;;;2.90;0.90;;;;;;;6.96;98.28;93693.13;4388047;32;20294;-60
2021/12/04 12:21:30;;;;;;;0.80;0.80;;;;;;;6.84;98.83;93704.28;4390025;32;20284;-60
2021/12/04 12:24:16;;;;;;;3.10;1.10;;;;;;;6.98;98.61;93700.72;4388440;32;20280;-60
2021/12/04 12:27:09;;;;;;;4.77;1.23;;;;;;;6.93;99.32;93695.59;4382834;32;20275;-60
2021/12/04 12:38:33;;;;;;;0.93;0.60;;;;;;;7.09;100.00;93665.81;4377218;32;20307;-59
2021/12/04 12:41:10;;;;;;;0.97;0.87;;;;;;;7.11;100.00;93670.78;4384453;32;20276;-60
2021/12/04 12:43:44;;;;;;;1.23;0.70;;;;;;;7.18;100.00;93663.97;4386930;32;20271;-61
2021/12/04 12:46:09;;;;;;;1.70;0.60;;;;;;;7.14;100.00;93656.97;4389313;32;20303;-60
2021/12/04 12:48:50;;;;;;;1.67;1.00;;;;;;;7.17;100.00;93654.50;4386754;32;20376;-60
2021/12/04 12:51:26;;;;;;;0.73;0.73;;;;;;;7.28;100.00;93656.78;4377809;32;20204;-60
2021/12/04 12:53:52;;;;;;;1.27;0.70;;;;;;;7.35;100.00;93647.31;4375004;32;20279;-60
2021/12/04 12:56:21;;;;;;;0.87;0.70;;;;;;;7.44;100.00;93650.72;4384720;32;20343;-60
2021/12/04 12:59:07;;;;;;;0.90;0.50;;;;;;;7.38;100.00;93644.06;4389211;32;20284;-60
2021/12/04 13:13:36;;;;;;;1.73;0.53;;;;;;;7.61;100.00;93622.72;4387314;32;20332;-60
2021/12/04 13:16:14;;;;;;;1.27;0.50;;;;;;;7.73;100.00;93630.75;4383353;32;20382;-60
2021/12/04 13:18:44;;;;;;;0.57;0.50;;;;;;;7.77;100.00;93636.94;4380997;32;20296;-60
2021/12/04 13:21:10;;;;;;;0.60;0.30;;;;;;;7.80;100.00;93631.03;4374682;32;20277;-60
2021/12/04 13:23:37;;;;;;;0.30;0.30;;;;;;;7.76;100.00;93632.75;4388737;32;20276;-60
2021/12/04 13:26:13;;;;;;;0.63;0.50;;;;;;;7.76;99.99;93630.13;4379662;32;20302;-60
2021/12/04 13:28:44;;;;;;;0.50;0.50;;;;;;;7.72;100.00;93634.47;4382423;32;20335;-60
2021/12/04 13:31:09;;;;;;;0.57;0.50;;;;;;;7.68;100.00;93628.31;4374266;32;20328;-60
2021/12/04 13:33:37;;;;;;;1.73;0.50;;;;;;;7.75;100.00;93629.34;4375867;32;20322;-60
2021/12/04 13:36:11;;;;;;;0.50;0.50;;;;;;;7.69;99.85;93627.22;4388728;32;20212;-60
2021/12/04 13:38:37;;;;;;;0.50;0.50;;;;;;;7.69;99.53;93627.22;4378722;32;20302;-60
2021/12/04 13:41:02;;;;;;;0.63;0.33;;;;;;;7.78;99.07;93620.78;4378642;32;20272;-60
2021/12/04 13:43:28;;;;;;;0.70;0.30;;;;;;;7.94;98.05;93618.38;4387621;32;20224;-60
2021/12/04 13:45:59;;;;;;;0.50;0.40;;;;;;;7.90;97.45;93625.38;4378144;32;20185;-60
2021/12/04 13:48:26;;;;;;;1.23;0.37;;;;;;;7.95;97.38;93622.56;4396049;32;20194;-60
2021/12/04 13:50:52;;;;;;;0.43;0.43;;;;;;;7.97;96.83;93620.41;4388626;32;20298;-60
2021/12/04 13:53:26;;;;;;;0.30;0.30;;;;;;;7.97;97.01;93612.47;4382356;32;20288;-60
2021/12/04 13:55:58;;;;;;;1.23;0.40;;;;;;;8.03;96.83;93619.13;4387606;32;20228;-60
2021/12/04 13:58:24;;;;;;;0.50;0.50;;;;;;;8.05;96.71;93610.91;4380797;32;20276;-60
2021/12/04 14:00:51;;;;;;;0.37;0.37;;;;;;;8.05;96.76;93616.94;4375731;32;20371;-60
2021/12/04 14:03:25;;;;;;;1.37;0.50;;;;;;;8.04;95.56;93606.69;4380796;32;20314;-60
2021/12/04 14:05:52;;;;;;;0.40;0.30;;;;;;;8.07;94.69;93612.13;4373604;32;20315;-60
2021/12/04 14:08:18;;;;;;;0.47;0.47;;;;;;;8.13;94.42;93610.06;4377074;32;20310;-60
2021/12/04 14:10:45;;;;;;;0.67;0.30;;;;;;;8.11;94.61;93610.38;4387516;32;20284;-60
2021/12/04 14:13:13;;;;;;;1.53;0.40;;;;;;;8.09;94.30;93614.44;4384915;32;20210;-60
2021/12/04 14:15:43;;;;;;;0.30;0.30;;;;;;;8.15;94.12;93616.56;4377930;32;20324;-60
2021/12/04 14:18:11;;;;;;;0.70;0.47;;;;;;;8.19;94.08;93616.72;4384636;32;20339;-60
2021/12/04 14:20:39;;;;;;;0.40;0.30;;;;;;;8.16;93.75;93620.75;4388667;32;20284;-60
2021/12/04 14:23:05;;;;;;;0.20;0.20;;;;;;;8.25;93.87;93624.13;4383015;32;20281;-60
2021/12/04 14:25:31;;;;;;;0.20;0.20;;;;;;;8.11;93.68;93628.09;4386247;32;20280;-60
2021/12/04 14:27:59;;;;;;;1.20;0.10;;;;;;;8.07;93.33;93630.59;4385757;32;20349;-59
2021/12/04 14:30:32;;;;;;;0.30;0.30;;;;;;;8.13;93.03;93639.09;4383125;32;20199;-60
2021/12/04 14:33:01;;;;;;;0.53;0.53;;;;;;;8.12;93.27;93633.03;4384074;32;20292;-60